sensor_id;sensor_type;location;lat;lon;timestamp;temperature;humidity
14061;DHT22;7105;43.616;1.434;2023-05-10T00:00:21;13.70;99.90
14061;DHT22;7105;43.616;1.434;2023-05-10T00:02:48;13.70;99.90
14061;DHT22;7105;43.616;1.434;2023-05-10T00:05:13;13.60;99.90
14061;DHT22;7105;43.616;1.434;2023-05-10T00:07:39;13.60;99.90
14061;DHT22;7105;43.616;1.434;2023-05-10T00:10:05;13.60;99.90
14061;DHT22;7105;43.616;1.434;2023-05-10T00:12:31;13.60;99.90
14061;DHT22;7105;43.616;1.434;2023-05-10T00:14:57;13.60;99.90
14061;DHT22;7105;43.616;1.434;2023-05-10T00:17:23;13.50;99.90
14061;DHT22;7105;43.616;1.434;2023-05-10T00:19:48;13.50;99.90
14061;DHT22;7105;43.616;1.434;2023-05-10T00:22:14;13.50;99.90
14061;DHT22;7105;43.616;1.434;2023-05-10T00:24:40;13.50;99.90
14061;DHT22;7105;43.616;1.434;2023-05-10T00:27:05;13.40;99.90
14061;DHT22;7105;43.616;1.434;2023-05-10T00:29:31;13.40;99.90
14061;DHT22;7105;43.616;1.434;2023-05-10T00:31:58;13.40;99.90
14061;DHT22;7105;43.616;1.434;2023-05-10T00:34:24;13.40;99.90
14061;DHT22;7105;43.616;1.434;2023-05-10T00:36:50;13.40;99.90
14061;DHT22;7105;43.616;1.434;2023-05-10T00:39:15;13.50;99.90
14061;DHT22;7105;43.616;1.434;2023-05-10T00:41:41;13.40;99.90
14061;DHT22;7105;43.616;1.434;2023-05-10T00:44:06;13.40;99.90
14061;DHT22;7105;43.616;1.434;2023-05-10T00:46:32;13.40;99.90
14061;DHT22;7105;43.616;1.434;2023-05-10T00:48:58;13.30;99.90
14061;DHT22;7105;43.616;1.434;2023-05-10T00:51:24;13.40;99.90
14061;DHT22;7105;43.616;1.434;2023-05-10T00:53:51;13.30;99.90
14061;DHT22;7105;43.616;1.434;2023-05-10T00:56:17;13.30;99.90
14061;DHT22;7105;43.616;1.434;2023-05-10T00:58:45;13.30;99.90
14061;DHT22;7105;43.616;1.434;2023-05-10T01:01:11;13.30;99.90
14061;DHT22;7105;43.616;1.434;2023-05-10T01:03:37;13.30;99.90
14061;DHT22;7105;43.616;1.434;2023-05-10T01:06:04;13.40;99.90
14061;DHT22;7105;43.616;1.434;2023-05-10T01:08:30;13.40;99.90
14061;DHT22;7105;43.616;1.434;2023-05-10T01:10:57;13.40;99.90
14061;DHT22;7105;43.616;1.434;2023-05-10T01:13:42;13.50;99.90
14061;DHT22;7105;43.616;1.434;2023-05-10T01:16:08;13.50;99.90
14061;DHT22;7105;43.616;1.434;2023-05-10T01:18:38;13.40;99.90
14061;DHT22;7105;43.616;1.434;2023-05-10T01:34:47;13.30;99.90
14061;DHT22;7105;43.616;1.434;2023-05-10T01:37:20;13.30;99.90
14061;DHT22;7105;43.616;1.434;2023-05-10T01:40:20;13.30;99.90
14061;DHT22;7105;43.616;1.434;2023-05-10T01:43:02;13.20;99.90
14061;DHT22;7105;43.616;1.434;2023-05-10T01:45:45;13.20;99.90
14061;DHT22;7105;43.616;1.434;2023-05-10T01:48:16;13.20;99.90
14061;DHT22;7105;43.616;1.434;2023-05-10T01:50:45;13.20;99.90
14061;DHT22;7105;43.616;1.434;2023-05-10T01:53:17;13.20;99.90
14061;DHT22;7105;43.616;1.434;2023-05-10T01:55:48;13.20;99.90
14061;DHT22;7105;43.616;1.434;2023-05-10T01:58:19;13.10;99.90
14061;DHT22;7105;43.616;1.434;2023-05-10T02:00:47;13.20;99.90
14061;DHT22;7105;43.616;1.434;2023-05-10T02:03:15;13.20;99.90
14061;DHT22;7105;43.616;1.434;2023-05-10T02:05:41;13.20;99.90
14061;DHT22;7105;43.616;1.434;2023-05-10T02:08:11;13.20;99.90
14061;DHT22;7105;43.616;1.434;2023-05-10T02:10:38;13.20;99.90
14061;DHT22;7105;43.616;1.434;2023-05-10T02:13:05;13.20;99.90
14061;DHT22;7105;43.616;1.434;2023-05-10T02:15:32;13.20;99.90
14061;DHT22;7105;43.616;1.434;2023-05-10T02:18:00;13.20;99.90
14061;DHT22;7105;43.616;1.434;2023-05-10T02:20:26;13.20;99.90
14061;DHT22;7105;43.616;1.434;2023-05-10T02:22:54;13.20;99.90
14061;DHT22;7105;43.616;1.434;2023-05-10T02:25:22;13.20;99.90
14061;DHT22;7105;43.616;1.434;2023-05-10T02:27:48;13.20;99.90
14061;DHT22;7105;43.616;1.434;2023-05-10T02:30:15;13.20;99.90
14061;DHT22;7105;43.616;1.434;2023-05-10T02:32:42;13.20;99.90
14061;DHT22;7105;43.616;1.434;2023-05-10T02:35:11;13.20;99.90
14061;DHT22;7105;43.616;1.434;2023-05-10T02:37:38;13.20;99.90
14061;DHT22;7105;43.616;1.434;2023-05-10T02:40:05;13.20;99.90
14061;DHT22;7105;43.616;1.434;2023-05-10T02:42:35;13.30;99.90
14061;DHT22;7105;43.616;1.434;2023-05-10T02:45:02;13.30;99.90
14061;DHT22;7105;43.616;1.434;2023-05-10T02:47:30;13.30;99.90
14061;DHT22;7105;43.616;1.434;2023-05-10T02:49:56;13.30;99.90
14061;DHT22;7105;43.616;1.434;2023-05-10T02:52:29;13.40;99.90
14061;DHT22;7105;43.616;1.434;2023-05-10T02:54:59;13.40;99.90
14061;DHT22;7105;43.616;1.434;2023-05-10T02:57:28;13.40;99.90
14061;DHT22;7105;43.616;1.434;2023-05-10T02:59:55;13.50;99.90
14061;DHT22;7105;43.616;1.434;2023-05-10T03:02:21;13.50;99.90
14061;DHT22;7105;43.616;1.434;2023-05-10T03:04:46;13.40;99.90
14061;DHT22;7105;43.616;1.434;2023-05-10T03:07:13;13.40;99.90
14061;DHT22;7105;43.616;1.434;2023-05-10T03:09:39;13.30;99.90
14061;DHT22;7105;43.616;1.434;2023-05-10T03:12:27;13.30;99.90
14061;DHT22;7105;43.616;1.434;2023-05-10T03:18:07;13.00;99.90
14061;DHT22;7105;43.616;1.434;2023-05-10T03:20:51;12.90;99.90
14061;DHT22;7105;43.616;1.434;2023-05-10T03:23:44;12.90;99.90
14061;DHT22;7105;43.616;1.434;2023-05-10T03:26:20;12.90;99.90
14061;DHT22;7105;43.616;1.434;2023-05-10T03:28:49;12.80;99.90
14061;DHT22;7105;43.616;1.434;2023-05-10T03:31:17;12.70;99.90
14061;DHT22;7105;43.616;1.434;2023-05-10T03:33:47;12.70;99.90
14061;DHT22;7105;43.616;1.434;2023-05-10T03:36:13;12.70;99.90
14061;DHT22;7105;43.616;1.434;2023-05-10T03:38:39;12.70;99.90
14061;DHT22;7105;43.616;1.434;2023-05-10T03:41:05;12.70;99.90
14061;DHT22;7105;43.616;1.434;2023-05-10T03:43:31;12.60;99.90
14061;DHT22;7105;43.616;1.434;2023-05-10T03:45:56;12.70;99.90
14061;DHT22;7105;43.616;1.434;2023-05-10T03:48:22;12.60;99.90
14061;DHT22;7105;43.616;1.434;2023-05-10T03:50:50;12.60;99.90
14061;DHT22;7105;43.616;1.434;2023-05-10T03:53:16;12.60;99.90
14061;DHT22;7105;43.616;1.434;2023-05-10T03:55:42;12.60;99.90
14061;DHT22;7105;43.616;1.434;2023-05-10T03:58:10;12.50;99.90
14061;DHT22;7105;43.616;1.434;2023-05-10T04:00:36;12.60;99.90
14061;DHT22;7105;43.616;1.434;2023-05-10T04:03:02;12.60;99.90
14061;DHT22;7105;43.616;1.434;2023-05-10T04:05:28;12.50;99.90
14061;DHT22;7105;43.616;1.434;2023-05-10T04:07:54;12.50;99.90
14061;DHT22;7105;43.616;1.434;2023-05-10T04:10:19;12.50;99.90
14061;DHT22;7105;43.616;1.434;2023-05-10T04:12:46;12.50;99.90
14061;DHT22;7105;43.616;1.434;2023-05-10T04:15:11;12.50;99.90
14061;DHT22;7105;43.616;1.434;2023-05-10T04:17:37;12.50;99.90
14061;DHT22;7105;43.616;1.434;2023-05-10T04:20:03;12.40;99.90
14061;DHT22;7105;43.616;1.434;2023-05-10T04:22:29;12.40;99.90
14061;DHT22;7105;43.616;1.434;2023-05-10T04:24:54;12.50;99.90
14061;DHT22;7105;43.616;1.434;2023-05-10T04:27:20;12.50;99.90
14061;DHT22;7105;43.616;1.434;2023-05-10T04:29:46;12.50;99.90
14061;DHT22;7105;43.616;1.434;2023-05-10T04:32:11;12.50;99.90
14061;DHT22;7105;43.616;1.434;2023-05-10T04:34:37;12.40;99.90
14061;DHT22;7105;43.616;1.434;2023-05-10T04:37:03;12.40;99.90
14061;DHT22;7105;43.616;1.434;2023-05-10T04:39:28;12.40;99.90
14061;DHT22;7105;43.616;1.434;2023-05-10T04:41:54;12.40;99.90
14061;DHT22;7105;43.616;1.434;2023-05-10T04:44:20;12.40;99.90
14061;DHT22;7105;43.616;1.434;2023-05-10T04:46:45;12.50;99.90
14061;DHT22;7105;43.616;1.434;2023-05-10T04:49:11;12.50;99.90
14061;DHT22;7105;43.616;1.434;2023-05-10T04:51:37;12.40;99.90
14061;DHT22;7105;43.616;1.434;2023-05-10T04:54:02;12.40;99.90
14061;DHT22;7105;43.616;1.434;2023-05-10T04:56:28;12.40;99.90
14061;DHT22;7105;43.616;1.434;2023-05-10T04:58:54;12.40;99.90
14061;DHT22;7105;43.616;1.434;2023-05-10T05:01:19;12.40;99.90
14061;DHT22;7105;43.616;1.434;2023-05-10T05:03:45;12.40;99.90
14061;DHT22;7105;43.616;1.434;2023-05-10T05:06:11;12.40;99.90
14061;DHT22;7105;43.616;1.434;2023-05-10T05:08:37;12.50;99.90
14061;DHT22;7105;43.616;1.434;2023-05-10T05:11:02;12.50;99.90
14061;DHT22;7105;43.616;1.434;2023-05-10T05:13:28;12.70;99.90
14061;DHT22;7105;43.616;1.434;2023-05-10T05:15:54;12.80;99.90
14061;DHT22;7105;43.616;1.434;2023-05-10T05:18:20;13.80;99.90
14061;DHT22;7105;43.616;1.434;2023-05-10T05:20:45;14.70;99.90
14061;DHT22;7105;43.616;1.434;2023-05-10T05:23:11;13.80;99.90
14061;DHT22;7105;43.616;1.434;2023-05-10T05:25:37;14.20;99.90
14061;DHT22;7105;43.616;1.434;2023-05-10T05:28:03;15.20;99.90
14061;DHT22;7105;43.616;1.434;2023-05-10T05:30:28;15.30;99.90
14061;DHT22;7105;43.616;1.434;2023-05-10T05:32:54;15.50;99.90
14061;DHT22;7105;43.616;1.434;2023-05-10T05:35:20;15.50;99.90
14061;DHT22;7105;43.616;1.434;2023-05-10T05:37:46;15.90;99.90
14061;DHT22;7105;43.616;1.434;2023-05-10T05:40:14;15.10;99.90
14061;DHT22;7105;43.616;1.434;2023-05-10T05:42:40;16.00;99.90
14061;DHT22;7105;43.616;1.434;2023-05-10T05:45:07;16.10;99.90
14061;DHT22;7105;43.616;1.434;2023-05-10T05:47:34;14.40;99.90
14061;DHT22;7105;43.616;1.434;2023-05-10T05:49:59;13.90;99.90
14061;DHT22;7105;43.616;1.434;2023-05-10T05:52:25;13.90;99.90
14061;DHT22;7105;43.616;1.434;2023-05-10T05:54:51;13.90;99.90
14061;DHT22;7105;43.616;1.434;2023-05-10T05:57:17;14.10;99.90
14061;DHT22;7105;43.616;1.434;2023-05-10T05:59:45;13.70;99.90
14061;DHT22;7105;43.616;1.434;2023-05-10T06:02:11;13.30;99.90
14061;DHT22;7105;43.616;1.434;2023-05-10T06:04:37;13.20;99.90
14061;DHT22;7105;43.616;1.434;2023-05-10T06:07:02;13.10;99.90
14061;DHT22;7105;43.616;1.434;2023-05-10T06:09:28;13.00;99.90
14061;DHT22;7105;43.616;1.434;2023-05-10T06:11:54;12.90;99.90
14061;DHT22;7105;43.616;1.434;2023-05-10T06:14:20;13.00;99.90
14061;DHT22;7105;43.616;1.434;2023-05-10T06:16:46;13.00;99.90
14061;DHT22;7105;43.616;1.434;2023-05-10T06:19:14;13.10;99.90
14061;DHT22;7105;43.616;1.434;2023-05-10T06:21:40;13.20;99.90
14061;DHT22;7105;43.616;1.434;2023-05-10T06:24:06;13.20;99.90
14061;DHT22;7105;43.616;1.434;2023-05-10T06:26:32;13.50;99.90
14061;DHT22;7105;43.616;1.434;2023-05-10T06:28:58;13.70;99.90
14061;DHT22;7105;43.616;1.434;2023-05-10T06:31:24;13.70;99.90
14061;DHT22;7105;43.616;1.434;2023-05-10T06:33:49;13.90;99.90
14061;DHT22;7105;43.616;1.434;2023-05-10T06:36:15;14.10;99.90
14061;DHT22;7105;43.616;1.434;2023-05-10T06:38:40;15.00;99.90
14061;DHT22;7105;43.616;1.434;2023-05-10T06:41:06;16.00;99.90
14061;DHT22;7105;43.616;1.434;2023-05-10T06:43:32;19.00;99.90
14061;DHT22;7105;43.616;1.434;2023-05-10T06:45:57;21.30;99.90
14061;DHT22;7105;43.616;1.434;2023-05-10T06:48:23;17.00;99.90
14061;DHT22;7105;43.616;1.434;2023-05-10T06:50:49;16.10;99.90
14061;DHT22;7105;43.616;1.434;2023-05-10T06:53:14;16.30;99.90
14061;DHT22;7105;43.616;1.434;2023-05-10T06:55:41;16.10;99.90
14061;DHT22;7105;43.616;1.434;2023-05-10T06:58:06;17.20;99.90
14061;DHT22;7105;43.616;1.434;2023-05-10T07:00:32;18.20;99.90
14061;DHT22;7105;43.616;1.434;2023-05-10T07:02:58;17.70;99.90
14061;DHT22;7105;43.616;1.434;2023-05-10T07:05:24;18.50;99.90
14061;DHT22;7105;43.616;1.434;2023-05-10T07:07:49;19.40;99.90
14061;DHT22;7105;43.616;1.434;2023-05-10T07:10:15;20.20;99.90
14061;DHT22;7105;43.616;1.434;2023-05-10T07:12:41;19.30;99.90
14061;DHT22;7105;43.616;1.434;2023-05-10T07:15:07;17.90;99.90
14061;DHT22;7105;43.616;1.434;2023-05-10T07:17:33;18.20;99.90
14061;DHT22;7105;43.616;1.434;2023-05-10T07:19:59;17.10;99.90
14061;DHT22;7105;43.616;1.434;2023-05-10T07:22:25;16.30;99.90
14061;DHT22;7105;43.616;1.434;2023-05-10T07:24:51;15.70;99.90
14061;DHT22;7105;43.616;1.434;2023-05-10T07:27:17;15.60;99.90
14061;DHT22;7105;43.616;1.434;2023-05-10T07:29:45;15.70;99.90
14061;DHT22;7105;43.616;1.434;2023-05-10T07:32:10;15.70;99.90
14061;DHT22;7105;43.616;1.434;2023-05-10T07:34:36;15.80;99.90
14061;DHT22;7105;43.616;1.434;2023-05-10T07:37:02;15.30;99.90
14061;DHT22;7105;43.616;1.434;2023-05-10T07:39:28;15.30;99.90
14061;DHT22;7105;43.616;1.434;2023-05-10T07:41:54;15.30;99.90
14061;DHT22;7105;43.616;1.434;2023-05-10T07:44:20;15.10;99.90
14061;DHT22;7105;43.616;1.434;2023-05-10T07:46:46;16.10;99.90
14061;DHT22;7105;43.616;1.434;2023-05-10T07:49:13;15.10;99.90
14061;DHT22;7105;43.616;1.434;2023-05-10T07:51:38;15.60;99.90
14061;DHT22;7105;43.616;1.434;2023-05-10T07:54:04;15.80;99.90
14061;DHT22;7105;43.616;1.434;2023-05-10T07:56:31;20.10;99.90
14061;DHT22;7105;43.616;1.434;2023-05-10T07:58:58;17.40;99.90
14061;DHT22;7105;43.616;1.434;2023-05-10T08:01:24;15.60;99.90
14061;DHT22;7105;43.616;1.434;2023-05-10T08:03:50;16.00;99.90
14061;DHT22;7105;43.616;1.434;2023-05-10T08:06:20;15.80;99.90
14061;DHT22;7105;43.616;1.434;2023-05-10T08:08:46;18.80;99.90
14061;DHT22;7105;43.616;1.434;2023-05-10T08:11:18;24.80;99.90
14061;DHT22;7105;43.616;1.434;2023-05-10T08:13:45;26.50;99.90
14061;DHT22;7105;43.616;1.434;2023-05-10T08:16:11;24.30;99.90
14061;DHT22;7105;43.616;1.434;2023-05-10T08:18:37;22.70;99.90
14061;DHT22;7105;43.616;1.434;2023-05-10T08:21:03;19.90;99.90
14061;DHT22;7105;43.616;1.434;2023-05-10T08:23:28;18.60;99.90
14061;DHT22;7105;43.616;1.434;2023-05-10T08:25:54;17.00;99.90
14061;DHT22;7105;43.616;1.434;2023-05-10T08:28:20;17.20;99.90
14061;DHT22;7105;43.616;1.434;2023-05-10T08:30:45;22.70;99.90
14061;DHT22;7105;43.616;1.434;2023-05-10T08:33:11;21.00;99.90
14061;DHT22;7105;43.616;1.434;2023-05-10T08:35:36;23.10;99.90
14061;DHT22;7105;43.616;1.434;2023-05-10T08:38:02;25.40;99.90
14061;DHT22;7105;43.616;1.434;2023-05-10T08:40:28;25.30;99.90
14061;DHT22;7105;43.616;1.434;2023-05-10T08:43:05;24.60;99.90
14061;DHT22;7105;43.616;1.434;2023-05-10T08:45:42;24.80;99.90
14061;DHT22;7105;43.616;1.434;2023-05-10T08:48:12;20.40;99.90
14061;DHT22;7105;43.616;1.434;2023-05-10T08:50:42;19.50;99.90
14061;DHT22;7105;43.616;1.434;2023-05-10T08:53:12;20.50;99.90
14061;DHT22;7105;43.616;1.434;2023-05-10T08:55:39;24.60;99.90
14061;DHT22;7105;43.616;1.434;2023-05-10T08:58:06;22.50;99.90
14061;DHT22;7105;43.616;1.434;2023-05-10T09:00:32;22.00;99.90
14061;DHT22;7105;43.616;1.434;2023-05-10T09:02:59;19.80;99.90
14061;DHT22;7105;43.616;1.434;2023-05-10T09:05:25;18.60;99.90
14061;DHT22;7105;43.616;1.434;2023-05-10T09:07:51;18.20;99.90
14061;DHT22;7105;43.616;1.434;2023-05-10T09:10:17;18.40;99.90
14061;DHT22;7105;43.616;1.434;2023-05-10T09:12:44;18.80;99.90
14061;DHT22;7105;43.616;1.434;2023-05-10T09:15:11;18.40;99.90
14061;DHT22;7105;43.616;1.434;2023-05-10T09:17:41;17.50;99.90
14061;DHT22;7105;43.616;1.434;2023-05-10T09:20:07;17.50;99.90
14061;DHT22;7105;43.616;1.434;2023-05-10T09:22:34;18.40;99.90
14061;DHT22;7105;43.616;1.434;2023-05-10T09:25:06;18.50;99.90
14061;DHT22;7105;43.616;1.434;2023-05-10T09:27:33;18.20;99.90
14061;DHT22;7105;43.616;1.434;2023-05-10T09:29:59;18.30;99.90
14061;DHT22;7105;43.616;1.434;2023-05-10T09:32:46;18.60;99.90
14061;DHT22;7105;43.616;1.434;2023-05-10T09:35:14;18.30;99.90
14061;DHT22;7105;43.616;1.434;2023-05-10T09:37:42;18.00;99.90
14061;DHT22;7105;43.616;1.434;2023-05-10T09:40:21;18.30;99.90
14061;DHT22;7105;43.616;1.434;2023-05-10T09:42:58;18.50;99.90
14061;DHT22;7105;43.616;1.434;2023-05-10T09:45:26;19.40;99.90
14061;DHT22;7105;43.616;1.434;2023-05-10T09:47:52;18.80;99.90
14061;DHT22;7105;43.616;1.434;2023-05-10T09:50:19;18.20;99.90
14061;DHT22;7105;43.616;1.434;2023-05-10T09:55:25;17.90;99.90
14061;DHT22;7105;43.616;1.434;2023-05-10T09:58:01;17.50;99.90
14061;DHT22;7105;43.616;1.434;2023-05-10T10:00:27;17.70;99.90
14061;DHT22;7105;43.616;1.434;2023-05-10T10:02:58;17.70;99.90
14061;DHT22;7105;43.616;1.434;2023-05-10T10:05:31;18.00;99.90
14061;DHT22;7105;43.616;1.434;2023-05-10T10:07:58;17.90;99.90
14061;DHT22;7105;43.616;1.434;2023-05-10T10:10:25;18.50;99.90
14061;DHT22;7105;43.616;1.434;2023-05-10T10:12:51;18.90;99.90
14061;DHT22;7105;43.616;1.434;2023-05-10T10:15:17;18.50;99.90
14061;DHT22;7105;43.616;1.434;2023-05-10T10:17:43;18.50;99.90
14061;DHT22;7105;43.616;1.434;2023-05-10T10:20:09;19.20;99.90
14061;DHT22;7105;43.616;1.434;2023-05-10T10:22:36;19.10;99.90
14061;DHT22;7105;43.616;1.434;2023-05-10T10:25:03;18.90;99.90
14061;DHT22;7105;43.616;1.434;2023-05-10T10:35:29;18.40;99.90
14061;DHT22;7105;43.616;1.434;2023-05-10T10:37:56;18.40;99.90
14061;DHT22;7105;43.616;1.434;2023-05-10T10:40:29;18.20;99.90
14061;DHT22;7105;43.616;1.434;2023-05-10T10:42:56;18.40;99.90
14061;DHT22;7105;43.616;1.434;2023-05-10T10:45:23;18.60;99.90
14061;DHT22;7105;43.616;1.434;2023-05-10T10:48:14;18.50;99.90
14061;DHT22;7105;43.616;1.434;2023-05-10T10:50:45;18.70;99.90
14061;DHT22;7105;43.616;1.434;2023-05-10T10:53:12;18.50;99.90
14061;DHT22;7105;43.616;1.434;2023-05-10T10:55:46;18.90;99.90
14061;DHT22;7105;43.616;1.434;2023-05-10T10:58:29;19.00;99.90
14061;DHT22;7105;43.616;1.434;2023-05-10T11:01:15;18.70;99.90
14061;DHT22;7105;43.616;1.434;2023-05-10T11:06:30;17.30;99.90
14061;DHT22;7105;43.616;1.434;2023-05-10T11:09:10;16.80;99.90
14061;DHT22;7105;43.616;1.434;2023-05-10T11:11:48;16.00;99.90
14061;DHT22;7105;43.616;1.434;2023-05-10T11:14:13;15.80;99.90
14061;DHT22;7105;43.616;1.434;2023-05-10T11:16:45;15.50;99.90
14061;DHT22;7105;43.616;1.434;2023-05-10T11:19:15;15.60;99.90
14061;DHT22;7105;43.616;1.434;2023-05-10T11:21:47;15.50;99.90
14061;DHT22;7105;43.616;1.434;2023-05-10T11:24:15;15.00;99.90
14061;DHT22;7105;43.616;1.434;2023-05-10T11:26:42;15.20;99.90
14061;DHT22;7105;43.616;1.434;2023-05-10T11:29:12;15.20;99.90
14061;DHT22;7105;43.616;1.434;2023-05-10T11:31:46;15.00;99.90
14061;DHT22;7105;43.616;1.434;2023-05-10T11:34:25;14.70;99.90
14061;DHT22;7105;43.616;1.434;2023-05-10T11:36:53;14.70;99.90
14061;DHT22;7105;43.616;1.434;2023-05-10T11:39:20;14.70;99.90
14061;DHT22;7105;43.616;1.434;2023-05-10T11:41:48;15.10;99.90
14061;DHT22;7105;43.616;1.434;2023-05-10T11:44:14;15.50;99.90
14061;DHT22;7105;43.616;1.434;2023-05-10T11:46:40;16.00;99.90
14061;DHT22;7105;43.616;1.434;2023-05-10T11:49:07;15.90;99.90
14061;DHT22;7105;43.616;1.434;2023-05-10T11:51:36;16.70;99.90
14061;DHT22;7105;43.616;1.434;2023-05-10T11:54:05;16.60;99.90
14061;DHT22;7105;43.616;1.434;2023-05-10T11:56:32;16.50;99.90
14061;DHT22;7105;43.616;1.434;2023-05-10T11:58:59;16.40;99.90
14061;DHT22;7105;43.616;1.434;2023-05-10T12:01:27;16.40;99.90
14061;DHT22;7105;43.616;1.434;2023-05-10T12:03:55;17.10;99.90
14061;DHT22;7105;43.616;1.434;2023-05-10T12:06:27;17.00;99.90
14061;DHT22;7105;43.616;1.434;2023-05-10T12:08:54;17.20;99.90
14061;DHT22;7105;43.616;1.434;2023-05-10T12:11:20;17.30;99.90
14061;DHT22;7105;43.616;1.434;2023-05-10T12:13:47;17.30;99.90
14061;DHT22;7105;43.616;1.434;2023-05-10T12:16:21;17.10;99.90
14061;DHT22;7105;43.616;1.434;2023-05-10T12:18:50;17.10;99.90
14061;DHT22;7105;43.616;1.434;2023-05-10T12:21:17;17.20;99.90
14061;DHT22;7105;43.616;1.434;2023-05-10T12:23:45;17.30;99.90
14061;DHT22;7105;43.616;1.434;2023-05-10T12:26:11;17.40;99.90
14061;DHT22;7105;43.616;1.434;2023-05-10T12:28:38;17.50;99.90
14061;DHT22;7105;43.616;1.434;2023-05-10T12:31:05;17.60;99.90
14061;DHT22;7105;43.616;1.434;2023-05-10T12:33:42;17.70;99.90
14061;DHT22;7105;43.616;1.434;2023-05-10T12:36:16;17.80;99.90
14061;DHT22;7105;43.616;1.434;2023-05-10T12:38:44;17.70;99.90
14061;DHT22;7105;43.616;1.434;2023-05-10T12:41:14;17.60;99.90
14061;DHT22;7105;43.616;1.434;2023-05-10T12:43:40;17.80;99.90
14061;DHT22;7105;43.616;1.434;2023-05-10T12:46:07;17.80;99.90
14061;DHT22;7105;43.616;1.434;2023-05-10T12:48:35;18.20;99.90
14061;DHT22;7105;43.616;1.434;2023-05-10T12:51:02;18.50;99.90
14061;DHT22;7105;43.616;1.434;2023-05-10T12:53:27;18.60;99.90
14061;DHT22;7105;43.616;1.434;2023-05-10T12:55:53;18.40;99.90
14061;DHT22;7105;43.616;1.434;2023-05-10T12:58:19;18.50;99.90
14061;DHT22;7105;43.616;1.434;2023-05-10T13:00:45;18.60;99.90
14061;DHT22;7105;43.616;1.434;2023-05-10T13:03:11;18.70;99.90
14061;DHT22;7105;43.616;1.434;2023-05-10T13:05:37;18.90;99.90
14061;DHT22;7105;43.616;1.434;2023-05-10T13:08:02;18.90;99.90
14061;DHT22;7105;43.616;1.434;2023-05-10T13:10:31;18.70;99.90
14061;DHT22;7105;43.616;1.434;2023-05-10T13:12:58;18.90;99.90
14061;DHT22;7105;43.616;1.434;2023-05-10T13:15:24;19.00;99.90
14061;DHT22;7105;43.616;1.434;2023-05-10T13:17:50;18.70;99.90
14061;DHT22;7105;43.616;1.434;2023-05-10T13:20:16;18.60;99.90
14061;DHT22;7105;43.616;1.434;2023-05-10T13:22:45;18.40;99.90
14061;DHT22;7105;43.616;1.434;2023-05-10T13:25:11;18.60;99.90
14061;DHT22;7105;43.616;1.434;2023-05-10T13:27:40;18.60;99.90
14061;DHT22;7105;43.616;1.434;2023-05-10T13:30:07;18.50;99.90
14061;DHT22;7105;43.616;1.434;2023-05-10T13:32:33;18.60;99.90
14061;DHT22;7105;43.616;1.434;2023-05-10T13:34:59;18.60;99.90
14061;DHT22;7105;43.616;1.434;2023-05-10T13:37:25;18.80;99.90
14061;DHT22;7105;43.616;1.434;2023-05-10T13:39:50;18.70;99.90
14061;DHT22;7105;43.616;1.434;2023-05-10T13:42:17;18.90;99.90
14061;DHT22;7105;43.616;1.434;2023-05-10T13:44:43;18.80;99.90
14061;DHT22;7105;43.616;1.434;2023-05-10T13:47:11;18.40;99.90
14061;DHT22;7105;43.616;1.434;2023-05-10T13:49:37;17.80;99.90
14061;DHT22;7105;43.616;1.434;2023-05-10T13:52:03;17.80;99.90
14061;DHT22;7105;43.616;1.434;2023-05-10T13:54:35;18.00;99.90
14061;DHT22;7105;43.616;1.434;2023-05-10T13:57:01;18.60;99.90
14061;DHT22;7105;43.616;1.434;2023-05-10T13:59:27;18.80;99.90
14061;DHT22;7105;43.616;1.434;2023-05-10T14:01:52;17.60;99.90
14061;DHT22;7105;43.616;1.434;2023-05-10T14:04:18;17.00;99.90
14061;DHT22;7105;43.616;1.434;2023-05-10T14:06:44;16.80;99.90
14061;DHT22;7105;43.616;1.434;2023-05-10T14:09:09;17.30;99.90
14061;DHT22;7105;43.616;1.434;2023-05-10T14:11:35;16.90;99.90
14061;DHT22;7105;43.616;1.434;2023-05-10T14:14:01;16.60;99.90
14061;DHT22;7105;43.616;1.434;2023-05-10T14:16:27;16.70;99.90
14061;DHT22;7105;43.616;1.434;2023-05-10T14:18:52;16.40;99.90
14061;DHT22;7105;43.616;1.434;2023-05-10T14:21:18;16.40;99.90
14061;DHT22;7105;43.616;1.434;2023-05-10T14:23:44;16.50;99.90
14061;DHT22;7105;43.616;1.434;2023-05-10T14:26:09;16.50;99.90
14061;DHT22;7105;43.616;1.434;2023-05-10T14:28:35;16.90;99.90
14061;DHT22;7105;43.616;1.434;2023-05-10T14:31:01;16.80;99.90
14061;DHT22;7105;43.616;1.434;2023-05-10T14:33:26;17.10;99.90
14061;DHT22;7105;43.616;1.434;2023-05-10T14:35:54;17.40;99.90
14061;DHT22;7105;43.616;1.434;2023-05-10T14:38:21;17.40;99.90
14061;DHT22;7105;43.616;1.434;2023-05-10T14:40:47;17.60;99.90
14061;DHT22;7105;43.616;1.434;2023-05-10T14:43:13;17.30;99.90
14061;DHT22;7105;43.616;1.434;2023-05-10T14:45:38;17.30;99.90
14061;DHT22;7105;43.616;1.434;2023-05-10T14:48:04;17.10;99.90
14061;DHT22;7105;43.616;1.434;2023-05-10T14:50:31;17.50;99.90
14061;DHT22;7105;43.616;1.434;2023-05-10T14:52:57;17.80;99.90
14061;DHT22;7105;43.616;1.434;2023-05-10T14:55:23;18.30;99.90
14061;DHT22;7105;43.616;1.434;2023-05-10T14:57:49;17.80;99.90
14061;DHT22;7105;43.616;1.434;2023-05-10T15:00:16;17.80;99.90
14061;DHT22;7105;43.616;1.434;2023-05-10T15:02:41;18.00;99.90
14061;DHT22;7105;43.616;1.434;2023-05-10T15:05:07;18.20;99.90
14061;DHT22;7105;43.616;1.434;2023-05-10T15:07:33;18.40;99.90
14061;DHT22;7105;43.616;1.434;2023-05-10T15:09:59;18.40;99.90
14061;DHT22;7105;43.616;1.434;2023-05-10T15:12:24;17.80;99.90
14061;DHT22;7105;43.616;1.434;2023-05-10T15:14:50;17.60;99.90
14061;DHT22;7105;43.616;1.434;2023-05-10T15:17:16;17.70;99.90
14061;DHT22;7105;43.616;1.434;2023-05-10T15:19:42;17.60;99.90
14061;DHT22;7105;43.616;1.434;2023-05-10T15:22:08;17.80;99.90
14061;DHT22;7105;43.616;1.434;2023-05-10T15:24:34;18.10;99.90
14061;DHT22;7105;43.616;1.434;2023-05-10T15:26:59;18.00;99.90
14061;DHT22;7105;43.616;1.434;2023-05-10T15:29:26;17.90;99.90
14061;DHT22;7105;43.616;1.434;2023-05-10T15:31:51;17.40;99.90
14061;DHT22;7105;43.616;1.434;2023-05-10T15:34:17;17.50;99.90
14061;DHT22;7105;43.616;1.434;2023-05-10T15:36:51;17.00;99.90
14061;DHT22;7105;43.616;1.434;2023-05-10T15:39:16;16.80;99.90
14061;DHT22;7105;43.616;1.434;2023-05-10T15:41:42;17.10;99.90
14061;DHT22;7105;43.616;1.434;2023-05-10T15:44:11;17.10;99.90
14061;DHT22;7105;43.616;1.434;2023-05-10T15:46:36;17.30;99.90
14061;DHT22;7105;43.616;1.434;2023-05-10T15:49:03;17.30;99.90
14061;DHT22;7105;43.616;1.434;2023-05-10T15:51:29;17.20;99.90
14061;DHT22;7105;43.616;1.434;2023-05-10T15:53:54;17.10;99.90
14061;DHT22;7105;43.616;1.434;2023-05-10T15:56:21;17.10;99.90
14061;DHT22;7105;43.616;1.434;2023-05-10T15:58:47;17.20;99.90
14061;DHT22;7105;43.616;1.434;2023-05-10T16:01:15;17.10;99.90
14061;DHT22;7105;43.616;1.434;2023-05-10T16:03:41;17.50;99.90
14061;DHT22;7105;43.616;1.434;2023-05-10T16:06:07;17.50;99.90
14061;DHT22;7105;43.616;1.434;2023-05-10T16:08:33;17.20;99.90
14061;DHT22;7105;43.616;1.434;2023-05-10T16:10:59;17.60;99.90
14061;DHT22;7105;43.616;1.434;2023-05-10T16:13:25;17.70;99.90
14061;DHT22;7105;43.616;1.434;2023-05-10T16:15:52;17.70;99.90